createdAt,value
2018-03-23T07:21:01.723Z,12.20
2018-03-23T07:22:01.712Z,194.50
2018-03-23T07:23:01.670Z,208.90
2018-03-23T07:24:01.660Z,169.60
2018-03-23T07:25:01.649Z,176.90
2018-03-23T07:26:01.644Z,204.10
2018-03-23T07:27:01.630Z,201.40
2018-03-23T07:28:01.619Z,160.70
2018-03-23T07:29:01.618Z,181.20
2018-03-23T07:30:01.595Z,163.10
2018-03-23T07:31:01.587Z,146.30
2018-03-23T07:32:01.578Z,168.20
2018-03-23T07:33:01.570Z,173.50
2018-03-23T07:34:01.558Z,167.60
2018-03-23T07:35:01.548Z,186.10
2018-03-23T07:36:01.537Z,158.20
2018-03-23T07:37:01.528Z,168.90
2018-03-23T07:38:01.514Z,160.80
2018-03-23T07:39:01.507Z,133.70
2018-03-23T07:40:01.497Z,146.20
2018-03-23T07:41:01.507Z,154.50
2018-03-23T07:42:01.474Z,143.60
2018-03-23T07:43:01.463Z,140.90
2018-03-23T07:44:01.457Z,141.50
2018-03-23T07:45:01.445Z,135.70
2018-03-23T07:46:01.435Z,138.60
2018-03-23T07:47:01.428Z,145.30
2018-03-23T07:48:01.414Z,141.30
2018-03-23T07:49:01.405Z,141.20
2018-03-23T07:50:01.401Z,122.30
2018-03-23T07:51:01.382Z,131.60
2018-03-23T07:52:01.381Z,128.70
2018-03-23T07:53:01.363Z,125.80
2018-03-23T07:54:01.359Z,119.30
2018-03-23T07:55:01.353Z,122.00
2018-03-23T07:56:01.333Z,115.70
2018-03-23T07:57:01.323Z,120.10
2018-03-23T07:58:01.318Z,122.20
2018-03-23T07:59:01.304Z,131.50
2018-03-23T08:00:01.295Z,117.70
2018-03-23T08:01:01.299Z,122.80
2018-03-23T08:02:01.277Z,114.60
2018-03-23T08:03:01.267Z,125.30
2018-03-23T08:04:01.260Z,122.30
2018-03-23T08:05:01.247Z,129.10
2018-03-23T08:06:01.232Z,121.00
2018-03-23T08:07:01.286Z,120.70
2018-03-23T08:08:01.220Z,114.10
2018-03-23T08:09:01.210Z,122.40
2018-03-23T08:10:01.200Z,130.20
2018-03-23T08:11:01.188Z,115.50
2018-03-23T08:12:01.175Z,112.40
2018-03-23T08:13:01.170Z,118.40
2018-03-23T08:14:01.161Z,124.50
2018-03-23T08:15:01.153Z,122.30
2018-03-23T08:16:01.144Z,116.10
2018-03-23T08:17:01.131Z,104.50
2018-03-23T08:18:01.122Z,128.20
2018-03-23T08:19:01.108Z,102.60
2018-03-23T08:20:01.100Z,105.80
2018-03-23T08:21:01.088Z,115.60
2018-03-23T08:22:01.078Z,100.10
2018-03-23T08:23:01.073Z,107.10
2018-03-23T08:24:01.065Z,109.80
2018-03-23T08:25:01.053Z,101.60
2018-03-23T08:26:01.038Z,108.20
2018-03-23T08:27:01.033Z,99.40
2018-03-23T08:28:01.020Z,114.20
2018-03-23T08:29:01.014Z,111.10
2018-03-23T08:30:01.007Z,114.20
2018-03-23T08:31:00.990Z,108.20
2018-03-23T08:32:00.990Z,110.80
2018-03-23T08:33:00.975Z,101.40
2018-03-23T08:34:00.966Z,106.40
2018-03-23T08:35:00.958Z,104.60
2018-03-23T08:36:00.947Z,99.20
2018-03-23T08:37:00.936Z,110.20
2018-03-23T08:38:00.927Z,101.10
2018-03-23T08:39:00.920Z,97.50
2018-03-23T08:40:00.910Z,102.70
2018-03-23T08:41:00.897Z,98.60
2018-03-23T08:42:00.887Z,89.10
2018-03-23T08:43:00.875Z,86.90
2018-03-23T08:44:00.871Z,91.60
2018-03-23T08:45:00.866Z,88.10
2018-03-23T08:46:00.852Z,83.00
2018-03-23T08:47:00.842Z,80.70
2018-03-23T08:48:00.882Z,78.40
2018-03-23T08:49:00.821Z,79.70
2018-03-23T08:50:00.819Z,74.90
2018-03-23T08:51:00.807Z,74.20
2018-03-23T08:52:00.792Z,70.80
2018-03-23T08:53:00.785Z,78.40
2018-03-23T08:54:00.772Z,71.40
2018-03-23T08:55:00.765Z,73.40
2018-03-23T08:56:00.757Z,69.90
2018-03-23T08:57:00.751Z,69.50
2018-03-23T08:58:00.740Z,63.70
2018-03-23T08:59:00.731Z,68.20
2018-03-23T09:00:00.714Z,66.90
2018-03-23T09:01:00.712Z,67.30
2018-03-23T09:02:00.702Z,68.70
2018-03-23T09:03:00.690Z,67.50
2018-03-23T09:04:00.684Z,67.30
2018-03-23T09:05:00.676Z,74.80
2018-03-23T09:06:00.664Z,67.60
2018-03-23T09:07:00.658Z,67.20
2018-03-23T09:08:00.649Z,67.40
2018-03-23T09:09:00.633Z,67.80
2018-03-23T09:10:00.624Z,63.30
2018-03-23T09:11:00.619Z,65.50
2018-03-23T09:12:00.616Z,63.90
2018-03-23T09:13:00.601Z,64.70
2018-03-23T09:14:00.593Z,68.80
2018-03-23T09:15:00.578Z,64.20
2018-03-23T09:16:00.570Z,71.40
2018-03-23T09:17:00.564Z,66.60
2018-03-23T09:18:00.554Z,71.70
2018-03-23T09:19:00.552Z,67.30
2018-03-23T09:20:00.538Z,67.10
2018-03-23T09:21:00.538Z,72.90
2018-03-23T09:22:00.514Z,66.00
2018-03-23T09:23:00.510Z,67.50
2018-03-23T09:24:00.501Z,71.20
2018-03-23T09:25:00.492Z,64.10
2018-03-23T09:26:00.502Z,67.90
2018-03-23T09:27:00.477Z,66.50
2018-03-23T09:28:00.460Z,63.90
2018-03-23T09:29:00.454Z,67.10
2018-03-23T09:30:00.443Z,64.40
2018-03-23T09:31:00.434Z,63.50
2018-03-23T09:32:00.428Z,66.60
2018-03-23T09:33:00.419Z,55.40
2018-03-23T09:34:00.409Z,59.90
2018-03-23T09:35:00.408Z,60.40
2018-03-23T09:36:00.392Z,57.70
2018-03-23T09:37:00.381Z,57.70
2018-03-23T09:38:00.369Z,56.90
2018-03-23T09:39:00.378Z,57.50
2018-03-23T09:40:00.355Z,51.60
2018-03-23T09:41:00.345Z,48.80
2018-03-23T09:42:00.334Z,56.70
2018-03-23T09:43:00.326Z,53.90
2018-03-23T09:44:00.316Z,51.40
2018-03-23T09:45:00.318Z,52.20
2018-03-23T09:46:00.304Z,57.40
2018-03-23T09:47:00.297Z,56.80
2018-03-23T09:48:00.286Z,54.50
2018-03-23T09:49:00.284Z,51.80
2018-03-23T09:50:00.268Z,55.00
2018-03-23T09:51:00.256Z,57.70
2018-03-23T09:52:00.250Z,46.80
2018-03-23T09:53:00.244Z,50.30
2018-03-23T09:54:00.235Z,50.00
2018-03-23T09:55:00.225Z,46.90
2018-03-23T09:56:00.219Z,46.70
2018-03-23T09:57:00.204Z,49.20
2018-03-23T09:58:00.195Z,49.70
2018-03-23T09:59:00.192Z,51.60
2018-03-23T10:00:00.183Z,43.00
2018-03-23T10:01:00.174Z,43.60
2018-03-23T10:02:00.160Z,43.50
2018-03-23T10:03:00.153Z,46.00
2018-03-23T10:04:00.206Z,47.00
2018-03-23T10:05:00.139Z,43.10
2018-03-23T10:06:00.129Z,45.80
2018-03-23T10:07:00.122Z,39.80
2018-03-23T10:08:00.115Z,47.90
2018-03-23T10:09:00.100Z,39.10
2018-03-23T10:10:00.088Z,42.40
2018-03-23T10:11:00.079Z,41.20
2018-03-23T10:12:00.076Z,40.50
2018-03-23T10:13:00.069Z,42.50
2018-03-23T10:14:00.057Z,42.40
2018-03-23T10:15:00.053Z,39.90
2018-03-23T10:16:00.040Z,45.50
2018-03-23T10:17:00.028Z,43.30
2018-03-23T10:18:00.025Z,42.00
2018-03-23T10:19:00.015Z,41.20
2018-03-23T10:20:00.004Z,42.70
2018-03-23T10:20:59.997Z,42.20
2018-03-23T10:21:59.987Z,40.70
2018-03-23T10:22:59.973Z,44.50
2018-03-23T10:23:59.965Z,41.90
2018-03-23T10:24:59.955Z,36.80
2018-03-23T10:25:59.953Z,41.50
2018-03-23T10:26:59.941Z,38.10
2018-03-23T10:27:59.933Z,38.80
2018-03-23T10:28:59.967Z,43.70
2018-03-23T10:29:59.911Z,40.90
2018-03-23T10:30:59.903Z,38.50
2018-03-23T10:31:59.898Z,42.20
2018-03-23T10:32:59.894Z,36.60
2018-03-23T10:33:59.879Z,38.60
2018-03-23T10:34:59.871Z,35.80
2018-03-23T10:35:59.876Z,35.30
2018-03-23T10:36:59.849Z,34.90
2018-03-23T10:37:59.840Z,33.40
2018-03-23T10:38:59.832Z,38.70
2018-03-23T10:39:59.828Z,33.10
2018-03-23T10:40:59.818Z,34.80
2018-03-23T10:41:59.812Z,37.40
2018-03-23T10:42:59.802Z,32.30
2018-03-23T10:43:59.793Z,33.80
2018-03-23T10:44:59.785Z,31.80
2018-03-23T10:45:59.779Z,31.40
2018-03-23T10:46:59.770Z,34.50
2018-03-23T10:47:59.761Z,30.70
2018-03-23T10:48:59.759Z,30.40
2018-03-23T10:49:59.751Z,29.30
2018-03-23T10:50:59.738Z,30.80
2018-03-23T10:51:59.726Z,28.50
2018-03-23T10:52:59.726Z,32.30
2018-03-23T10:53:59.710Z,30.30
2018-03-23T10:54:59.703Z,29.60
2018-03-23T10:55:59.699Z,28.70
2018-03-23T10:56:59.688Z,31.20
2018-03-23T10:57:59.684Z,28.30
2018-03-23T10:58:59.682Z,27.70
2018-03-23T10:59:59.670Z,29.30
2018-03-23T11:00:59.657Z,28.20
2018-03-23T11:01:59.652Z,30.20
2018-03-23T11:02:59.641Z,28.70
2018-03-23T11:03:59.635Z,27.40
2018-03-23T11:04:59.645Z,30.60
2018-03-23T11:05:59.615Z,28.70
2018-03-23T11:06:59.614Z,30.40
2018-03-23T11:07:59.604Z,30.10
2018-03-23T11:08:59.599Z,27.50
2018-03-23T11:09:59.585Z,24.80
2018-03-23T11:10:59.577Z,28.40
2018-03-23T11:11:59.571Z,30.30
2018-03-23T11:12:59.564Z,26.90
2018-03-23T11:13:59.558Z,43.50
2018-03-23T11:14:59.548Z,56.20
2018-03-23T11:15:59.548Z,28.20
2018-03-23T11:16:59.536Z,72.70
2018-03-23T11:17:59.533Z,64.90
2018-03-23T11:18:59.522Z,90.70
2018-03-23T11:19:59.522Z,39.00
2018-03-23T11:20:59.510Z,30.50
2018-03-23T11:21:59.525Z,24.50
2018-03-23T11:22:59.529Z,23.20
2018-03-23T11:23:59.491Z,23.60
2018-03-23T11:24:59.483Z,23.80
2018-03-23T11:25:59.478Z,25.70
2018-03-23T11:26:59.477Z,28.50
2018-03-23T11:27:59.469Z,26.90
2018-03-23T11:28:59.460Z,23.60
2018-03-23T11:29:59.449Z,24.10
2018-03-23T11:30:59.446Z,24.50
2018-03-23T11:31:59.444Z,22.90
2018-03-23T11:32:59.452Z,25.60
2018-03-23T11:33:59.429Z,26.30
2018-03-23T11:34:59.420Z,26.80
2018-03-23T11:35:59.411Z,26.40
2018-03-23T11:36:59.453Z,26.00
2018-03-23T11:37:59.398Z,27.70
2018-03-23T11:38:59.395Z,30.10
2018-03-23T11:39:59.390Z,29.60
2018-03-23T11:40:59.380Z,29.80
2018-03-23T11:41:59.375Z,31.40
2018-03-23T11:42:59.366Z,31.20
2018-03-23T11:43:59.356Z,31.90
2018-03-23T11:44:59.352Z,31.40
2018-03-23T11:45:59.343Z,32.30
2018-03-23T11:46:59.338Z,33.40
2018-03-23T11:47:59.333Z,33.50
2018-03-23T11:48:59.328Z,34.70
2018-03-23T11:49:59.314Z,31.10
2018-03-23T11:50:59.305Z,36.60
2018-03-23T11:51:59.295Z,34.20
2018-03-23T11:52:59.289Z,33.10
2018-03-23T11:53:59.287Z,38.40
2018-03-23T11:54:59.275Z,36.50
2018-03-23T11:55:59.267Z,34.90
2018-03-23T11:56:59.258Z,37.30
2018-03-23T11:57:59.248Z,35.80
2018-03-23T11:58:59.242Z,38.70
2018-03-23T11:59:59.236Z,38.60
2018-03-23T12:00:59.230Z,37.90
2018-03-23T12:01:59.273Z,43.90
2018-03-23T12:02:59.210Z,41.10
2018-03-23T12:03:59.202Z,45.50
2018-03-23T12:04:59.194Z,44.00
2018-03-23T12:05:59.185Z,43.40
2018-03-23T12:06:59.179Z,45.00
2018-03-23T12:07:59.173Z,48.30
2018-03-23T12:08:59.167Z,50.10
2018-03-23T12:09:59.153Z,46.10
2018-03-23T12:10:59.144Z,46.80
2018-03-23T12:11:59.141Z,48.00
2018-03-23T12:12:59.129Z,44.00
2018-03-23T12:13:59.124Z,49.30
2018-03-23T12:14:59.120Z,44.20
2018-03-23T12:15:59.109Z,43.00
2018-03-23T12:16:59.100Z,42.40
2018-03-23T12:17:59.090Z,41.30
2018-03-23T12:18:59.082Z,39.50
2018-03-23T12:19:59.074Z,38.10
2018-03-23T12:20:59.068Z,39.00
2018-03-23T12:21:59.058Z,40.00
2018-03-23T12:22:59.047Z,38.80
2018-03-23T12:23:59.040Z,38.70
2018-03-23T12:24:59.036Z,38.10
2018-03-23T12:25:59.025Z,37.90
2018-03-23T12:26:59.018Z,37.90
2018-03-23T12:27:59.012Z,41.10
2018-03-23T12:28:59.016Z,38.90
2018-03-23T12:29:58.997Z,35.90
2018-03-23T12:30:58.983Z,35.80
2018-03-23T12:31:59.026Z,36.40
2018-03-23T12:32:58.967Z,35.80
2018-03-23T12:33:58.966Z,34.40
2018-03-23T12:34:58.968Z,34.30
2018-03-23T12:35:58.946Z,35.10
2018-03-23T12:36:58.940Z,35.40
2018-03-23T12:37:58.934Z,36.30
2018-03-23T12:38:58.917Z,34.50
2018-03-23T12:39:58.908Z,34.80
2018-03-23T12:40:58.912Z,36.60
2018-03-23T12:41:58.896Z,38.00
2018-03-23T12:42:58.889Z,35.00
2018-03-23T12:43:58.876Z,38.70
2018-03-23T12:44:58.888Z,37.90
2018-03-23T12:45:58.863Z,39.20
2018-03-23T12:46:58.854Z,41.40
2018-03-23T12:47:58.848Z,39.50
2018-03-23T12:48:58.835Z,40.10
2018-03-23T12:49:58.827Z,37.80
2018-03-23T12:50:58.835Z,41.00
2018-03-23T12:51:58.812Z,42.00
2018-03-23T12:52:58.802Z,42.40
2018-03-23T12:53:58.793Z,39.20
2018-03-23T12:54:58.790Z,38.10
2018-03-23T12:55:58.778Z,44.10
2018-03-23T12:56:58.773Z,38.50
2018-03-23T12:57:58.761Z,39.00
2018-03-23T12:58:58.753Z,40.10
2018-03-23T12:59:58.743Z,38.30
2018-03-23T13:00:58.740Z,36.50
2018-03-23T13:01:58.729Z,38.10
2018-03-23T13:02:58.718Z,39.00
2018-03-23T13:03:58.713Z,38.50
2018-03-23T13:04:58.702Z,41.90
2018-03-23T13:05:58.725Z,37.30
2018-03-23T13:06:58.686Z,40.90
2018-03-23T13:07:58.683Z,38.30
2018-03-23T13:08:58.673Z,43.40
2018-03-23T13:09:58.659Z,40.60
2018-03-23T13:10:58.658Z,39.70
2018-03-23T13:11:58.646Z,40.30
2018-03-23T13:12:58.639Z,42.80
2018-03-23T13:13:58.628Z,40.80
2018-03-23T13:14:58.626Z,37.90
2018-03-23T13:15:58.615Z,38.30
2018-03-23T13:16:58.603Z,40.60
2018-03-23T13:17:58.599Z,37.50
2018-03-23T13:18:58.585Z,41.20
2018-03-23T13:19:58.583Z,39.60
2018-03-23T13:20:58.574Z,39.20
2018-03-23T13:21:58.563Z,37.70
2018-03-23T13:22:58.555Z,36.70
2018-03-23T13:23:58.546Z,38.20
2018-03-23T13:24:58.539Z,36.60
2018-03-23T13:25:58.527Z,39.90
2018-03-23T13:26:58.516Z,37.70
2018-03-23T13:27:58.510Z,38.70
2018-03-23T13:28:58.537Z,36.90
2018-03-23T13:29:58.499Z,40.10
2018-03-23T13:30:58.484Z,40.40
2018-03-23T13:31:58.478Z,35.80
2018-03-23T13:32:58.476Z,37.20
2018-03-23T13:33:58.461Z,35.80
2018-03-23T13:34:58.454Z,36.00
2018-03-23T13:35:58.444Z,37.90
2018-03-23T13:36:58.437Z,35.60
2018-03-23T13:37:58.432Z,33.60
2018-03-23T13:38:58.415Z,35.10
2018-03-23T13:39:58.409Z,37.40
2018-03-23T13:40:58.400Z,34.40
2018-03-23T13:41:58.397Z,38.60
2018-03-23T13:42:58.384Z,35.20
2018-03-23T13:43:58.374Z,31.60
2018-03-23T13:44:58.366Z,33.90
2018-03-23T13:45:58.359Z,32.00
2018-03-23T13:46:58.345Z,33.00
2018-03-23T13:47:58.342Z,34.00
2018-03-23T13:48:58.334Z,31.60
2018-03-23T13:49:58.391Z,30.70
2018-03-23T13:50:58.318Z,32.00
2018-03-23T13:51:58.306Z,30.80
2018-03-23T13:52:58.298Z,26.90
2018-03-23T13:53:58.286Z,28.80
2018-03-23T13:54:58.283Z,28.80
2018-03-23T13:55:58.274Z,27.30
2018-03-23T13:56:58.261Z,25.90
2018-03-23T13:57:58.255Z,28.10
2018-03-23T13:58:58.243Z,24.00
2018-03-23T13:59:58.243Z,25.20
2018-03-23T14:00:58.230Z,25.20
2018-03-23T14:01:58.226Z,28.50
2018-03-23T14:02:58.211Z,25.80
2018-03-23T14:03:58.206Z,22.30
2018-03-23T14:04:58.195Z,22.50
2018-03-23T14:05:58.192Z,25.10
2018-03-23T14:06:58.171Z,23.40
2018-03-23T14:07:58.169Z,21.70
2018-03-23T14:08:58.157Z,21.50
2018-03-23T14:09:58.149Z,21.20
2018-03-23T14:10:58.138Z,21.90
2018-03-23T14:11:58.130Z,25.80
2018-03-23T14:12:58.120Z,20.40
2018-03-23T14:13:58.121Z,21.40
2018-03-23T14:14:58.107Z,20.90
2018-03-23T14:15:58.101Z,22.30
2018-03-23T14:16:58.088Z,21.10
2018-03-23T14:17:58.078Z,24.00
2018-03-23T14:18:58.071Z,21.60
2018-03-23T14:19:58.060Z,23.20
2018-03-23T14:20:58.116Z,22.10
2018-03-23T14:21:58.046Z,23.30
2018-03-23T14:22:58.030Z,24.10
2018-03-23T14:23:58.028Z,25.60
2018-03-23T14:24:58.015Z,21.20
2018-03-23T14:25:58.005Z,22.20
2018-03-23T14:26:57.995Z,25.00
2018-03-23T14:27:57.989Z,24.00
2018-03-23T14:28:58.012Z,23.10
2018-03-23T14:29:57.975Z,22.70
2018-03-23T14:30:57.970Z,21.90
2018-03-23T14:31:57.948Z,22.70
2018-03-23T14:32:57.943Z,27.30
2018-03-23T14:33:57.930Z,24.00
2018-03-23T14:34:57.929Z,25.20
2018-03-23T14:35:57.917Z,24.30
2018-03-23T14:36:57.909Z,22.30
2018-03-23T14:37:57.898Z,23.40
2018-03-23T14:38:57.885Z,24.00
2018-03-23T14:39:57.876Z,24.00
2018-03-23T14:40:57.878Z,22.40
2018-03-23T14:41:57.864Z,24.60
2018-03-23T14:42:57.855Z,26.10
2018-03-23T14:43:57.849Z,27.10
2018-03-23T14:44:57.835Z,25.50
2018-03-23T14:45:57.837Z,21.60
2018-03-23T14:46:57.831Z,24.40
2018-03-23T14:47:57.811Z,29.90
2018-03-23T14:48:57.801Z,25.40
2018-03-23T14:49:57.788Z,32.50
2018-03-23T14:50:57.785Z,32.40
2018-03-23T14:51:57.766Z,27.50
2018-03-23T14:52:57.761Z,36.60
2018-03-23T14:53:57.750Z,33.10
2018-03-23T14:54:57.749Z,32.70
2018-03-23T14:55:57.771Z,28.10
2018-03-23T14:56:57.764Z,29.60
2018-03-23T14:57:57.714Z,28.20
2018-03-23T14:58:58.348Z,23.30
2018-03-23T14:59:57.695Z,29.00
2018-03-23T15:00:57.691Z,24.50
2018-03-23T15:01:57.684Z,25.00
2018-03-23T15:02:57.671Z,24.90
2018-03-23T15:03:57.658Z,24.50
2018-03-23T15:04:57.649Z,26.90
2018-03-23T15:05:57.678Z,25.00
2018-03-23T15:06:57.638Z,24.60
2018-03-23T15:07:57.654Z,26.60
2018-03-23T15:08:57.639Z,24.30
2018-03-23T15:09:57.609Z,24.50
2018-03-23T15:10:57.599Z,24.60
2018-03-23T15:11:57.584Z,24.60
2018-03-23T15:12:57.578Z,24.10
2018-03-23T15:13:57.572Z,25.80
2018-03-23T15:14:57.564Z,23.00
2018-03-23T15:15:57.558Z,21.30
2018-03-23T15:16:57.572Z,24.60
2018-03-23T15:17:57.534Z,21.70
2018-03-23T15:18:57.524Z,23.50
2018-03-23T15:19:57.522Z,24.60
2018-03-23T15:20:57.506Z,23.10
2018-03-23T15:21:57.504Z,22.90
2018-03-23T15:22:57.488Z,23.30
2018-03-23T15:23:57.478Z,24.60
2018-03-23T15:24:57.496Z,20.90
2018-03-23T15:25:57.460Z,24.90
2018-03-23T15:26:57.453Z,22.60
2018-03-23T15:27:57.449Z,23.10
2018-03-23T15:28:57.437Z,24.40
2018-03-23T15:29:57.430Z,22.30
2018-03-23T15:30:57.418Z,23.10
2018-03-23T15:31:57.408Z,24.00
2018-03-23T15:32:57.400Z,24.70
2018-03-23T15:33:57.396Z,24.60
2018-03-23T15:34:57.388Z,21.10
2018-03-23T15:35:57.380Z,23.60
2018-03-23T15:36:57.367Z,24.10
2018-03-23T15:37:57.356Z,28.50
2018-03-23T15:38:57.346Z,25.50
2018-03-23T15:39:57.339Z,25.40
2018-03-23T15:40:57.345Z,23.70
2018-03-23T15:41:57.324Z,24.60
2018-03-23T15:42:57.314Z,25.80
2018-03-23T15:43:57.308Z,25.00
2018-03-23T15:44:57.293Z,24.60
2018-03-23T15:45:57.284Z,23.00
2018-03-23T15:46:57.287Z,24.00
2018-03-23T15:47:57.268Z,26.10
2018-03-23T15:48:57.262Z,26.40
2018-03-23T15:49:57.283Z,25.10
2018-03-23T15:50:57.244Z,27.20
2018-03-23T15:51:57.243Z,26.70
2018-03-23T15:52:57.226Z,25.00
2018-03-23T15:53:57.223Z,23.70
2018-03-23T15:54:57.212Z,25.20
2018-03-23T15:55:57.199Z,26.40
2018-03-23T15:56:57.206Z,24.40
2018-03-23T15:57:57.181Z,29.30
2018-03-23T15:58:57.169Z,25.90
2018-03-23T15:59:57.163Z,25.90
2018-03-23T16:00:57.156Z,28.10
2018-03-23T16:01:57.203Z,28.30
2018-03-23T16:02:57.138Z,28.50
2018-03-23T16:03:57.128Z,24.30
2018-03-23T16:04:57.117Z,28.10
2018-03-23T16:05:57.113Z,29.00
2018-03-23T16:06:57.099Z,30.60
2018-03-23T16:07:57.090Z,32.80
2018-03-23T16:08:57.084Z,30.40
2018-03-23T16:09:57.081Z,31.40
2018-03-23T16:10:57.067Z,30.60
2018-03-23T16:11:57.054Z,30.00
2018-03-23T16:12:57.045Z,31.20
2018-03-23T16:13:57.036Z,30.60
2018-03-23T16:14:57.030Z,33.50
2018-03-23T16:15:57.023Z,33.30
2018-03-23T16:16:57.013Z,35.00
2018-03-23T16:17:56.999Z,33.90
2018-03-23T16:18:56.991Z,33.20
2018-03-23T16:19:56.980Z,34.30
2018-03-23T16:20:56.973Z,31.80
2018-03-23T16:21:56.964Z,33.20
2018-03-23T16:22:56.957Z,30.30
2018-03-23T16:23:56.948Z,34.60
2018-03-23T16:24:56.933Z,36.40
2018-03-23T16:25:56.925Z,33.00
2018-03-23T16:26:56.921Z,34.70
2018-03-23T16:27:56.912Z,37.80
2018-03-23T16:28:56.903Z,33.90
2018-03-23T16:29:56.891Z,33.80
2018-03-23T16:30:56.878Z,34.20
2018-03-23T16:31:56.906Z,34.90
2018-03-23T16:32:56.866Z,35.10
2018-03-23T16:33:56.858Z,33.20
2018-03-23T16:34:56.848Z,33.20
2018-03-23T16:35:56.836Z,35.80
2018-03-23T16:36:56.833Z,35.40
2018-03-23T16:37:56.814Z,35.50
2018-03-23T16:38:56.806Z,35.60
2018-03-23T16:39:56.796Z,32.00
2018-03-23T16:40:56.791Z,35.50
2018-03-23T16:41:56.783Z,35.30
2018-03-23T16:42:56.829Z,35.50
2018-03-23T16:43:56.757Z,35.70
2018-03-23T16:44:56.757Z,33.40
2018-03-23T16:45:56.819Z,34.00
2018-03-23T16:46:56.732Z,34.70
2018-03-23T16:47:56.723Z,34.30
2018-03-23T16:48:56.716Z,32.80
2018-03-23T16:49:56.699Z,33.40
2018-03-23T16:50:56.693Z,34.10
2018-03-23T16:51:56.723Z,36.10
2018-03-23T16:52:56.678Z,37.20
2018-03-23T16:53:56.672Z,33.80
2018-03-23T16:54:56.658Z,37.90
2018-03-23T16:55:56.646Z,37.00
2018-03-23T16:56:56.641Z,35.10
2018-03-23T16:57:56.630Z,36.30
2018-03-23T16:58:56.619Z,35.60
2018-03-23T16:59:56.627Z,40.50
2018-03-23T17:00:56.602Z,38.80
2018-03-23T17:01:56.597Z,35.30
2018-03-23T17:02:56.579Z,36.20
2018-03-23T17:03:56.573Z,35.50
2018-03-23T17:04:56.563Z,35.40
2018-03-23T17:05:56.555Z,37.10
2018-03-23T17:06:56.549Z,36.00
2018-03-23T17:07:56.539Z,34.00
2018-03-23T17:08:56.529Z,36.70
2018-03-23T17:09:56.521Z,34.60
2018-03-23T17:10:56.505Z,36.20
2018-03-23T17:11:56.503Z,35.60
2018-03-23T17:12:56.501Z,34.70
2018-03-23T17:13:56.480Z,33.10
2018-03-23T17:14:56.470Z,33.90
2018-03-23T17:15:56.459Z,34.10
2018-03-23T17:16:56.450Z,33.60
2018-03-23T17:17:56.445Z,32.90
2018-03-23T17:18:56.444Z,34.30
2018-03-23T17:19:56.425Z,37.60
2018-03-23T17:20:56.414Z,34.70
2018-03-23T17:21:56.400Z,34.60
2018-03-23T17:22:56.390Z,37.10
2018-03-23T17:23:56.384Z,36.10
2018-03-23T17:24:56.380Z,34.60
2018-03-23T17:25:56.364Z,35.30
2018-03-23T17:26:56.396Z,34.50
2018-03-23T17:27:56.344Z,36.60
2018-03-23T17:28:56.337Z,33.80
2018-03-23T17:29:56.324Z,35.40
2018-03-23T17:30:56.317Z,38.10
2018-03-23T17:31:56.311Z,33.90
2018-03-23T17:32:56.303Z,36.10
2018-03-23T17:33:56.287Z,34.30
2018-03-23T17:34:56.294Z,34.20
2018-03-23T17:35:56.268Z,35.80
2018-03-23T17:36:56.263Z,34.50
2018-03-23T17:37:56.314Z,32.10
2018-03-23T17:38:56.253Z,34.70
2018-03-23T17:39:56.234Z,32.30
2018-03-23T17:40:56.224Z,31.50
2018-03-23T17:41:56.213Z,32.90
2018-03-23T17:42:56.203Z,32.70
2018-03-23T17:43:56.194Z,34.00
2018-03-23T17:44:56.184Z,32.40
2018-03-23T17:45:56.176Z,34.50
2018-03-23T17:46:56.167Z,32.10
2018-03-23T17:47:56.157Z,32.20
2018-03-23T17:48:56.186Z,34.30
2018-03-23T17:49:56.134Z,35.50
2018-03-23T17:50:56.134Z,35.20
2018-03-23T17:51:56.128Z,32.10
2018-03-23T17:52:56.111Z,37.50
2018-03-23T17:53:56.096Z,33.00
2018-03-23T17:54:56.087Z,32.20
2018-03-23T17:55:56.079Z,34.30
2018-03-23T17:56:56.070Z,33.70
2018-03-23T17:57:56.061Z,37.20
2018-03-23T17:58:56.053Z,34.60
2018-03-23T17:59:56.041Z,31.60
2018-03-23T18:00:56.031Z,31.80
2018-03-23T18:01:56.020Z,32.60
2018-03-23T18:02:56.012Z,33.40
2018-03-23T18:03:56.003Z,33.70
2018-03-23T18:04:55.997Z,32.60
2018-03-23T18:05:55.991Z,33.10
2018-03-23T18:06:55.971Z,33.30
2018-03-23T18:07:55.966Z,34.30
2018-03-23T18:08:55.953Z,31.50
2018-03-23T18:09:55.951Z,31.80
2018-03-23T18:10:55.935Z,33.20
2018-03-23T18:11:55.924Z,35.90
2018-03-23T18:12:55.914Z,34.00
2018-03-23T18:13:55.907Z,32.70
2018-03-23T18:14:55.901Z,33.30
2018-03-23T18:15:55.887Z,30.80
2018-03-23T18:16:55.877Z,32.20
2018-03-23T18:17:55.895Z,33.10
2018-03-23T18:18:55.860Z,32.70
2018-03-23T18:19:55.845Z,32.00
2018-03-23T18:20:55.838Z,32.40
2018-03-23T18:21:55.826Z,33.00
2018-03-23T18:22:55.822Z,30.20
2018-03-23T18:23:55.810Z,31.90
2018-03-23T18:24:55.798Z,30.10
2018-03-23T18:25:55.790Z,31.40
2018-03-23T18:26:55.779Z,31.90
2018-03-23T18:27:55.771Z,31.00
2018-03-23T18:28:55.767Z,29.90
2018-03-23T18:29:55.754Z,34.30
2018-03-23T18:30:55.747Z,32.40
2018-03-23T18:31:55.739Z,30.60
2018-03-23T18:32:55.722Z,29.80
2018-03-23T18:33:55.727Z,29.30
2018-03-23T18:34:55.733Z,32.40
2018-03-23T18:35:55.695Z,30.80
2018-03-23T18:36:55.687Z,29.70
2018-03-23T18:37:55.674Z,31.00
2018-03-23T18:38:55.710Z,32.30
2018-03-23T18:39:55.658Z,30.50
2018-03-23T18:40:55.659Z,29.50
2018-03-23T18:41:55.639Z,27.30
2018-03-23T18:42:55.630Z,29.00
2018-03-23T18:43:55.619Z,30.80
2018-03-23T18:44:55.608Z,28.00
2018-03-23T18:45:55.598Z,30.30
2018-03-23T18:46:55.588Z,29.90
2018-03-23T18:47:55.581Z,28.40
2018-03-23T18:48:55.570Z,28.60
2018-03-23T18:49:55.560Z,27.20
2018-03-23T18:50:55.555Z,30.60
2018-03-23T18:51:55.536Z,28.60
2018-03-23T18:52:55.527Z,30.00
2018-03-23T18:53:55.518Z,28.00
2018-03-23T18:54:55.507Z,29.00
2018-03-23T18:55:55.502Z,29.30
2018-03-23T18:56:55.492Z,30.50
2018-03-23T18:57:55.477Z,30.60
2018-03-23T18:58:55.480Z,31.00
2018-03-23T18:59:55.464Z,29.50
2018-03-23T19:00:55.452Z,27.40
2018-03-23T19:01:55.444Z,29.80
2018-03-23T19:02:55.429Z,29.80
2018-03-23T19:03:55.427Z,34.80
2018-03-23T19:04:55.414Z,29.80
2018-03-23T19:05:55.399Z,30.70
2018-03-23T19:06:55.391Z,31.70
2018-03-23T19:07:55.381Z,28.90
2018-03-23T19:08:55.375Z,31.30
2018-03-23T19:09:55.370Z,30.90
2018-03-23T19:10:55.354Z,30.20
2018-03-23T19:11:55.340Z,29.90
2018-03-23T19:12:55.452Z,33.90
2018-03-23T19:13:55.324Z,31.40
2018-03-23T19:14:55.312Z,31.40
2018-03-23T19:15:55.307Z,29.60
2018-03-23T19:16:55.296Z,31.10
2018-03-23T19:17:55.294Z,28.80
2018-03-23T19:18:55.273Z,28.70
2018-03-23T19:19:55.264Z,32.10
2018-03-23T19:20:55.253Z,31.10
2018-03-23T19:21:55.246Z,31.50
2018-03-23T19:22:55.241Z,31.20
2018-03-23T19:23:55.229Z,32.90
2018-03-23T19:24:55.215Z,34.80
2018-03-23T19:25:55.207Z,30.70
2018-03-23T19:26:55.193Z,31.00
2018-03-23T19:27:55.201Z,28.60
2018-03-23T19:28:55.185Z,31.70
2018-03-23T19:29:55.168Z,31.20
2018-03-23T19:30:55.156Z,31.30
2018-03-23T19:31:55.154Z,29.60
2018-03-23T19:32:55.135Z,30.40
2018-03-23T19:33:55.130Z,30.10
2018-03-23T19:34:55.133Z,31.20
2018-03-23T19:35:55.108Z,31.80
2018-03-23T19:36:55.103Z,28.00
2018-03-23T19:37:55.085Z,30.20
2018-03-23T19:38:55.075Z,31.70
2018-03-23T19:39:55.070Z,30.00
2018-03-23T19:40:55.084Z,29.60
2018-03-23T19:41:55.052Z,29.40
2018-03-23T19:42:55.042Z,28.20
2018-03-23T19:43:55.027Z,30.50
2018-03-23T19:44:55.017Z,27.30
2018-03-23T19:45:55.009Z,27.90
2018-03-23T19:46:55.014Z,28.00
2018-03-23T19:47:54.990Z,28.40
2018-03-23T19:48:54.983Z,30.00
2018-03-23T19:49:54.974Z,29.80
2018-03-23T19:50:54.959Z,30.20
2018-03-23T19:51:54.998Z,31.30
2018-03-23T19:52:54.940Z,30.90
2018-03-23T19:53:54.929Z,31.20
2018-03-23T19:54:54.923Z,31.10
2018-03-23T19:55:54.914Z,31.60
2018-03-23T19:56:54.899Z,31.80
2018-03-23T19:57:54.888Z,29.80
2018-03-23T19:58:54.880Z,31.10
2018-03-23T19:59:54.870Z,32.90
2018-03-23T20:00:54.859Z,30.20
2018-03-23T20:01:54.857Z,33.50
2018-03-23T20:02:54.843Z,31.00
2018-03-23T20:03:54.833Z,33.00
2018-03-23T20:04:54.867Z,32.60
2018-03-23T20:05:54.821Z,33.20
2018-03-23T20:06:54.800Z,33.20
2018-03-23T20:07:54.817Z,32.60
2018-03-23T20:08:54.782Z,35.20
2018-03-23T20:09:54.772Z,31.60
2018-03-23T20:10:54.760Z,31.40